createdAt,value
2022-12-13T00:00:14.945Z,-1.67
2022-12-13T00:03:28.634Z,-1.69
2022-12-13T00:06:41.512Z,-1.75
2022-12-13T00:09:53.261Z,-1.71
2022-12-13T00:13:05.150Z,-1.74
2022-12-13T00:16:22.691Z,-1.73
2022-12-13T00:19:34.770Z,-1.73
2022-12-13T00:22:46.846Z,-1.77
2022-12-13T00:25:58.708Z,-1.76
2022-12-13T00:29:13.258Z,-1.77
2022-12-13T00:32:25.613Z,-1.76
2022-12-13T00:35:37.921Z,-1.81
2022-12-13T00:38:52.224Z,-1.82
2022-12-13T00:42:04.361Z,-1.88
2022-12-13T00:45:17.542Z,-1.88
2022-12-13T00:48:39.401Z,-1.96
2022-12-13T00:55:41.573Z,-1.98
2022-12-13T00:59:05.793Z,-1.93
2022-12-13T01:02:17.540Z,-1.95
2022-12-13T01:06:12.538Z,-1.92
2022-12-13T01:11:52.863Z,-1.96
2022-12-13T01:15:04.788Z,-1.99
2022-12-13T01:18:26.770Z,-2.04
2022-12-13T01:21:38.716Z,-2.10
2022-12-13T01:24:50.888Z,-2.06
2022-12-13T01:28:02.706Z,-2.06
2022-12-13T01:31:26.713Z,-2.08
2022-12-13T01:34:38.490Z,-2.10
2022-12-13T01:37:51.516Z,-2.10
2022-12-13T01:41:08.995Z,-2.11
2022-12-13T01:45:12.545Z,-2.15
2022-12-13T01:48:29.239Z,-2.19
2022-12-13T01:51:46.109Z,-2.15
2022-12-13T01:55:29.388Z,-2.17
2022-12-13T01:58:43.076Z,-2.23
2022-12-13T02:02:00.996Z,-2.30
2022-12-13T02:05:18.442Z,-2.30
2022-12-13T02:08:35.970Z,-2.36
2022-12-13T02:11:49.137Z,-2.34
2022-12-13T02:15:02.552Z,-2.35
2022-12-13T02:18:29.627Z,-2.36
2022-12-13T02:21:47.834Z,-2.38
2022-12-13T02:25:28.612Z,-2.38
2022-12-13T02:28:53.354Z,-2.42
2022-12-13T02:32:11.560Z,-2.47
2022-12-13T02:35:36.184Z,-2.50
2022-12-13T02:38:55.743Z,-2.53
2022-12-13T02:42:21.410Z,-2.51
2022-12-13T02:45:45.524Z,-2.51
2022-12-13T02:49:00.929Z,-2.48
2022-12-13T02:52:22.414Z,-2.57
2022-12-13T02:55:32.549Z,-2.57
2022-12-13T02:58:48.843Z,-2.54
2022-12-13T03:02:10.939Z,-2.56
2022-12-13T03:05:51.250Z,-2.57
2022-12-13T03:09:24.000Z,-2.62
2022-12-13T03:12:56.016Z,-2.67
2022-12-13T03:16:15.439Z,-2.67
2022-12-13T03:19:29.467Z,-2.68
2022-12-13T03:22:42.708Z,-2.69
2022-12-13T03:25:57.807Z,-2.69
2022-12-13T03:29:09.895Z,-2.72
2022-12-13T03:32:21.654Z,-2.71
2022-12-13T03:35:44.383Z,-2.67
2022-12-13T03:38:48.056Z,-2.69
2022-12-13T03:42:01.023Z,-2.72
2022-12-13T03:45:15.534Z,-2.72
2022-12-13T03:48:28.696Z,-2.72
2022-12-13T03:51:40.834Z,-2.71
2022-12-13T03:54:52.677Z,-2.73
2022-12-13T03:58:07.817Z,-2.71
2022-12-13T04:01:22.273Z,-2.75
2022-12-13T04:04:34.375Z,-2.78
2022-12-13T04:07:47.903Z,-2.79
2022-12-13T04:11:00.209Z,-2.80
2022-12-13T04:14:22.627Z,-2.77
2022-12-13T04:17:27.892Z,-2.86
2022-12-13T04:20:39.690Z,-2.83
2022-12-13T04:23:51.509Z,-2.84
2022-12-13T04:27:03.387Z,-2.83
2022-12-13T04:30:27.006Z,-2.92
2022-12-13T04:33:41.164Z,-2.97
2022-12-13T04:36:53.129Z,-2.91
2022-12-13T04:40:21.558Z,-2.93
2022-12-13T04:43:30.885Z,-2.94
2022-12-13T04:46:44.072Z,-2.98
2022-12-13T04:50:03.663Z,-3.01
2022-12-13T04:53:45.965Z,-2.97
2022-12-13T04:57:00.071Z,-3.03
2022-12-13T05:00:21.287Z,-3.03
2022-12-13T05:03:33.492Z,-3.06
2022-12-13T05:06:46.425Z,-3.06
2022-12-13T05:13:38.986Z,-3.06
2022-12-13T05:16:51.033Z,-3.07
2022-12-13T05:20:03.095Z,-3.08
2022-12-13T05:26:55.875Z,-3.05
2022-12-13T05:30:08.190Z,-3.03
2022-12-13T05:33:20.234Z,-3.05
2022-12-13T05:36:32.690Z,-3.07
2022-12-13T05:39:44.756Z,-3.03
2022-12-13T05:43:01.431Z,-3.04
2022-12-13T05:46:11.364Z,-3.07
2022-12-13T05:49:32.529Z,-3.06
2022-12-13T05:52:44.894Z,-3.05
2022-12-13T05:55:56.751Z,-3.08
2022-12-13T05:59:08.696Z,-3.09
2022-12-13T06:02:22.157Z,-3.07
2022-12-13T06:05:35.066Z,-3.08
2022-12-13T06:08:47.491Z,-3.07
2022-12-13T06:12:01.147Z,-3.10
2022-12-13T06:15:21.943Z,-3.06
2022-12-13T06:18:30.600Z,-3.12
2022-12-13T06:21:46.379Z,-3.12
2022-12-13T06:24:57.370Z,-3.10
2022-12-13T06:28:09.572Z,-3.08
2022-12-13T06:31:21.454Z,-3.05
2022-12-13T06:34:33.852Z,-3.03
2022-12-13T06:37:46.520Z,-3.01
2022-12-13T06:40:58.595Z,-3.01
2022-12-13T06:44:12.854Z,-3.03
2022-12-13T06:47:31.726Z,-2.99
2022-12-13T06:50:39.237Z,-2.99
2022-12-13T06:53:51.182Z,-3.00
2022-12-13T06:57:03.035Z,-3.00
2022-12-13T07:00:22.623Z,-2.99
2022-12-13T07:03:37.584Z,-2.95
2022-12-13T07:06:50.928Z,-2.94
2022-12-13T07:10:03.445Z,-2.92
2022-12-13T07:13:16.717Z,-2.87
2022-12-13T07:16:30.080Z,-2.85
2022-12-13T07:19:42.278Z,-2.83
2022-12-13T07:22:58.908Z,-2.81
2022-12-13T07:26:11.748Z,-2.83
2022-12-13T07:29:23.838Z,-2.77
2022-12-13T07:32:36.421Z,-2.76
2022-12-13T07:35:48.900Z,-2.71
2022-12-13T07:39:03.967Z,-2.69
2022-12-13T07:42:15.817Z,-2.70
2022-12-13T07:45:29.095Z,-2.67
2022-12-13T07:48:41.353Z,-2.64
2022-12-13T07:51:53.244Z,-2.66
2022-12-13T07:55:05.854Z,-2.65
2022-12-13T07:58:19.838Z,-2.63
2022-12-13T08:01:32.222Z,-2.56
2022-12-13T08:04:44.443Z,-2.50
2022-12-13T08:07:57.184Z,-2.52
2022-12-13T08:11:15.449Z,-2.52
2022-12-13T08:14:27.344Z,-2.47
2022-12-13T08:17:39.395Z,-2.39
2022-12-13T08:20:52.728Z,-2.42
2022-12-13T08:24:07.215Z,-2.39
2022-12-13T08:27:19.955Z,-2.21
2022-12-13T08:30:31.923Z,-2.20
2022-12-13T08:33:46.503Z,-2.21
2022-12-13T08:37:01.986Z,-2.22
2022-12-13T08:40:15.809Z,-2.29
2022-12-13T08:43:29.311Z,-2.22
2022-12-13T08:46:41.346Z,-2.30
2022-12-13T08:49:53.265Z,-2.22
2022-12-13T08:53:05.401Z,-2.20
2022-12-13T08:56:18.954Z,-2.20
2022-12-13T08:59:32.236Z,-2.28
2022-12-13T09:02:44.766Z,-2.20
2022-12-13T09:05:57.099Z,-2.31
2022-12-13T09:09:09.426Z,-2.23
2022-12-13T09:12:30.707Z,-2.29
2022-12-13T09:15:36.738Z,-2.41
2022-12-13T09:18:55.404Z,-2.40
2022-12-13T09:22:03.823Z,-2.38
2022-12-13T09:25:24.004Z,-2.24
2022-12-13T09:28:30.755Z,-2.26
2022-12-13T09:31:42.641Z,-2.28
2022-12-13T09:34:57.615Z,-2.31
2022-12-13T09:38:09.935Z,-2.22
2022-12-13T09:41:28.313Z,-2.06
2022-12-13T09:44:51.548Z,-2.02
2022-12-13T09:48:05.897Z,-1.93
2022-12-13T09:51:28.603Z,-1.98
2022-12-13T09:54:36.494Z,-1.98
2022-12-13T09:57:52.808Z,-1.87
2022-12-13T10:01:09.691Z,-1.87
2022-12-13T10:04:26.045Z,-2.00
2022-12-13T10:07:40.134Z,-2.04
2022-12-13T10:10:53.064Z,-2.12
2022-12-13T10:14:10.816Z,-2.03
2022-12-13T10:17:26.281Z,-1.97
2022-12-13T10:20:40.198Z,-2.03
2022-12-13T10:24:23.650Z,-2.11
2022-12-13T10:27:14.736Z,-2.11
2022-12-13T10:30:29.435Z,-2.15
2022-12-13T10:33:44.764Z,-2.12
2022-12-13T10:36:59.515Z,-2.23
2022-12-13T10:40:32.819Z,-2.23
2022-12-13T10:43:39.814Z,-2.19
2022-12-13T10:47:09.966Z,-2.10
2022-12-13T10:50:33.462Z,-2.08
2022-12-13T10:53:51.485Z,-2.09
2022-12-13T10:57:04.875Z,-1.91
2022-12-13T11:00:40.635Z,-1.73
2022-12-13T11:04:04.664Z,-1.21
2022-12-13T11:07:32.715Z,-0.83
2022-12-13T11:10:45.986Z,-1.10
2022-12-13T11:14:03.720Z,-1.38
2022-12-13T11:17:23.255Z,-1.46
2022-12-13T11:20:40.124Z,-1.40
2022-12-13T11:23:52.973Z,-1.42
2022-12-13T11:27:10.105Z,-1.34
2022-12-13T11:30:28.915Z,-1.35
2022-12-13T11:33:49.509Z,-1.26
2022-12-13T11:37:08.635Z,-1.34
2022-12-13T11:40:26.023Z,-1.32
2022-12-13T11:43:43.827Z,-1.26
2022-12-13T11:47:01.775Z,-1.10
2022-12-13T11:50:32.999Z,-0.76
2022-12-13T11:53:43.471Z,-0.51
2022-12-13T11:57:00.803Z,-0.68
2022-12-13T12:00:33.366Z,-0.91
2022-12-13T12:03:46.114Z,-0.93
2022-12-13T12:07:24.572Z,-0.76
2022-12-13T12:10:29.524Z,-0.76
2022-12-13T12:13:50.514Z,-0.68
2022-12-13T12:17:03.906Z,-0.59
2022-12-13T12:20:24.745Z,-0.81
2022-12-13T12:23:52.661Z,-1.11
2022-12-13T12:27:13.988Z,-1.28
2022-12-13T12:30:32.962Z,-1.24
2022-12-13T12:33:46.898Z,-1.18
2022-12-13T12:37:08.567Z,-1.19
2022-12-13T12:41:14.691Z,-1.21
2022-12-13T12:44:08.613Z,-1.31
2022-12-13T12:47:57.562Z,-1.29
2022-12-13T12:50:52.487Z,-1.37
2022-12-13T12:54:12.704Z,-1.38
2022-12-13T12:57:30.719Z,-1.36
2022-12-13T13:00:50.582Z,-1.39
2022-12-13T13:04:08.918Z,-1.53
2022-12-13T13:07:25.683Z,-1.63
2022-12-13T13:10:36.031Z,-1.73
2022-12-13T13:13:56.294Z,-1.74
2022-12-13T13:17:56.940Z,-1.72
2022-12-13T13:21:39.484Z,-1.83
2022-12-13T13:25:03.362Z,-1.87
2022-12-13T13:28:22.246Z,-1.82
2022-12-13T13:31:39.003Z,-1.81
2022-12-13T13:34:53.612Z,-1.92
2022-12-13T13:38:13.725Z,-1.91
2022-12-13T13:42:07.862Z,-1.88
2022-12-13T13:45:32.141Z,-1.85
2022-12-13T13:49:02.977Z,-1.90
2022-12-13T13:52:27.063Z,-1.92
2022-12-13T13:56:02.995Z,-1.93
2022-12-13T14:00:06.668Z,-1.91
2022-12-13T14:04:15.673Z,-1.84
2022-12-13T14:08:14.327Z,-1.85
2022-12-13T14:12:20.301Z,-1.87
2022-12-13T14:16:12.091Z,-1.89
2022-12-13T14:20:06.231Z,-2.00
2022-12-13T14:23:29.408Z,-1.99
2022-12-13T14:26:58.379Z,-2.00
2022-12-13T14:30:27.164Z,-2.03
2022-12-13T14:33:34.700Z,-2.06
2022-12-13T14:36:49.648Z,-2.22
2022-12-13T14:40:01.538Z,-2.23
2022-12-13T14:43:28.542Z,-2.20
2022-12-13T14:46:41.270Z,-2.20
2022-12-13T14:49:57.717Z,-2.30
2022-12-13T14:53:10.425Z,-2.27
2022-12-13T14:56:28.441Z,-2.22
2022-12-13T14:59:37.726Z,-2.25
2022-12-13T15:02:58.582Z,-2.26
2022-12-13T15:06:11.780Z,-2.26
2022-12-13T15:09:24.085Z,-2.29
2022-12-13T15:12:39.133Z,-2.32
2022-12-13T15:15:55.395Z,-2.32
2022-12-13T15:19:30.062Z,-2.31
2022-12-13T15:22:41.028Z,-2.32
2022-12-13T15:26:03.445Z,-2.39
2022-12-13T15:29:17.978Z,-2.41
2022-12-13T15:32:30.603Z,-2.42
2022-12-13T15:35:43.449Z,-2.43
2022-12-13T15:39:07.151Z,-2.44
2022-12-13T15:42:25.815Z,-2.39
2022-12-13T15:45:38.176Z,-2.39
2022-12-13T15:48:53.681Z,-2.48
2022-12-13T15:52:08.877Z,-2.51
2022-12-13T15:55:41.423Z,-2.57
2022-12-13T15:58:58.541Z,-2.56
2022-12-13T16:02:14.026Z,-2.59
2022-12-13T16:05:36.705Z,-2.65
2022-12-13T16:08:50.131Z,-2.58
2022-12-13T16:12:06.930Z,-2.59
2022-12-13T16:15:29.603Z,-2.60
2022-12-13T16:18:48.902Z,-2.64
2022-12-13T16:22:01.111Z,-2.66
2022-12-13T16:25:17.483Z,-2.64
2022-12-13T16:28:29.717Z,-2.67
2022-12-13T16:31:41.854Z,-2.68
2022-12-13T16:34:53.925Z,-2.67
2022-12-13T16:38:09.421Z,-2.66
2022-12-13T16:41:22.233Z,-2.66
2022-12-13T16:44:40.859Z,-2.70
2022-12-13T16:47:54.263Z,-2.71
2022-12-13T16:51:08.671Z,-2.75
2022-12-13T16:54:20.786Z,-2.77
2022-12-13T16:57:32.807Z,-2.75
2022-12-13T17:00:45.572Z,-2.77
2022-12-13T17:03:57.601Z,-2.76
2022-12-13T17:07:09.581Z,-2.78
2022-12-13T17:10:22.934Z,-2.77
2022-12-13T17:13:35.645Z,-2.77
2022-12-13T17:16:47.637Z,-2.81
2022-12-13T17:20:00.408Z,-2.77
2022-12-13T17:23:24.695Z,-2.76
2022-12-13T17:26:26.967Z,-2.77
2022-12-13T17:29:39.072Z,-2.75
2022-12-13T17:32:51.554Z,-2.79
2022-12-13T17:36:05.028Z,-2.77
2022-12-13T17:39:19.107Z,-2.78
2022-12-13T17:42:31.138Z,-2.80
2022-12-13T17:45:44.059Z,-2.83
2022-12-13T17:48:56.887Z,-2.89
2022-12-13T17:52:11.581Z,-2.88
2022-12-13T17:55:23.812Z,-2.99
2022-12-13T17:58:36.576Z,-3.00
2022-12-13T18:01:50.646Z,-2.99
2022-12-13T18:05:02.885Z,-3.01
2022-12-13T18:08:14.916Z,-3.05
2022-12-13T18:11:35.092Z,-3.15
2022-12-13T18:14:41.404Z,-3.20
2022-12-13T18:21:13.241Z,-3.38
2022-12-13T18:24:25.148Z,-3.38
2022-12-13T18:27:39.639Z,-3.37
2022-12-13T18:30:51.765Z,-3.37
2022-12-13T18:34:05.795Z,-3.41
2022-12-13T18:37:17.782Z,-3.49
2022-12-13T18:40:29.966Z,-3.50
2022-12-13T18:43:42.314Z,-3.56
2022-12-13T18:46:54.425Z,-3.57
2022-12-13T18:50:06.691Z,-3.56
2022-12-13T18:53:20.595Z,-3.61
2022-12-13T18:56:32.703Z,-3.63
2022-12-13T18:59:54.326Z,-3.63
2022-12-13T19:02:58.977Z,-3.62
2022-12-13T19:06:14.630Z,-3.64
2022-12-13T19:09:26.637Z,-3.58
2022-12-13T19:12:38.638Z,-3.56
2022-12-13T19:15:51.164Z,-3.57
2022-12-13T19:19:03.536Z,-3.54
2022-12-13T19:22:15.878Z,-3.51
2022-12-13T19:25:27.923Z,-3.52
2022-12-13T19:28:43.129Z,-3.58
2022-12-13T19:31:55.423Z,-3.61
2022-12-13T19:35:07.713Z,-3.64
2022-12-13T19:38:21.926Z,-3.62
2022-12-13T19:41:35.496Z,-3.68
2022-12-13T19:44:47.680Z,-3.67
2022-12-13T19:47:59.643Z,-3.66
2022-12-13T19:51:14.230Z,-3.65
2022-12-13T19:54:28.239Z,-3.74
2022-12-13T19:57:41.347Z,-3.72
2022-12-13T20:00:53.632Z,-3.70
2022-12-13T20:04:05.922Z,-3.72
2022-12-13T20:07:18.287Z,-3.69
2022-12-13T20:10:30.885Z,-3.71
2022-12-13T20:13:43.797Z,-3.66
2022-12-13T20:16:55.773Z,-3.62
2022-12-13T20:20:07.805Z,-3.66
2022-12-13T20:23:20.557Z,-3.68
2022-12-13T20:26:35.725Z,-3.68
2022-12-13T20:29:48.332Z,-3.69
2022-12-13T20:33:01.496Z,-3.67
2022-12-13T20:36:25.905Z,-3.72
2022-12-13T20:39:31.423Z,-3.75
2022-12-13T20:42:44.401Z,-3.78
2022-12-13T20:45:56.384Z,-3.81
2022-12-13T20:49:10.937Z,-3.88
2022-12-13T20:52:22.888Z,-3.97
2022-12-13T20:55:34.962Z,-4.00
2022-12-13T20:58:47.615Z,-4.04
2022-12-13T21:01:59.583Z,-4.13
2022-12-13T21:05:19.100Z,-4.17
2022-12-13T21:08:42.036Z,-4.20
2022-12-13T21:11:55.228Z,-4.24
2022-12-13T21:15:07.416Z,-4.27
2022-12-13T21:18:19.387Z,-4.27
2022-12-13T21:21:32.880Z,-4.29
2022-12-13T21:24:44.775Z,-4.31
2022-12-13T21:27:56.713Z,-4.35
2022-12-13T21:31:10.931Z,-4.42
2022-12-13T21:34:23.229Z,-4.47
2022-12-13T21:37:35.067Z,-4.54
2022-12-13T21:40:52.145Z,-4.58
2022-12-13T21:44:05.274Z,-4.57
2022-12-13T21:47:17.164Z,-4.69
2022-12-13T21:50:28.972Z,-4.70
2022-12-13T21:53:41.289Z,-4.79
2022-12-13T21:57:07.726Z,-4.82
2022-12-13T22:00:22.095Z,-4.90
2022-12-13T22:03:33.964Z,-4.94
2022-12-13T22:06:45.840Z,-4.97
2022-12-13T22:09:59.524Z,-5.06
2022-12-13T22:13:11.427Z,-5.27
2022-12-13T22:16:23.243Z,-5.24
2022-12-13T22:19:35.082Z,-5.37
2022-12-13T22:22:48.617Z,-5.39
2022-12-13T22:26:00.481Z,-5.45
2022-12-13T22:29:14.050Z,-5.56
2022-12-13T22:32:27.201Z,-5.69
2022-12-13T22:35:39.480Z,-5.72
2022-12-13T22:38:54.546Z,-5.76
2022-12-13T22:42:06.566Z,-5.79
2022-12-13T22:45:18.947Z,-5.89
2022-12-13T22:48:30.920Z,-5.91
2022-12-13T22:51:44.342Z,-5.95
2022-12-13T22:54:56.215Z,-6.05
2022-12-13T22:58:08.124Z,-6.09
2022-12-13T23:01:22.780Z,-6.08
2022-12-13T23:04:34.868Z,-6.11
2022-12-13T23:07:48.516Z,-6.18
2022-12-13T23:11:19.066Z,-6.30
2022-12-13T23:14:37.016Z,-6.30
2022-12-13T23:17:48.937Z,-6.31
2022-12-13T23:21:00.837Z,-6.35
2022-12-13T23:24:14.656Z,-6.37
2022-12-13T23:27:28.533Z,-6.40
2022-12-13T23:30:41.701Z,-6.46
2022-12-13T23:33:53.924Z,-6.47
2022-12-13T23:37:05.801Z,-6.51
2022-12-13T23:40:19.629Z,-6.55
2022-12-13T23:43:34.388Z,-6.54
2022-12-13T23:46:48.342Z,-6.50
2022-12-13T23:50:00.908Z,-6.55
2022-12-13T23:53:12.850Z,-6.62
2022-12-13T23:56:25.505Z,-6.64
2022-12-13T23:59:37.448Z,-6.70
